Time;durP1;ratioP1;P1;durP2;ratioP2;P2;SDS_P1;SDS_P2;PMS_P1;PMS_P2;Temp;Humidity;BMP_temperature;BMP_pressure;BME280_temperature;BME280_humidity;BME280_pressure;Samples;Min_cycle;Max_cycle;Signal;HPM_P1;HPM_P2
2022/02/26 00:00:50;;;;;;;5.20;1.35;;;;;;;-144.43;100.00;64487.81;5044282;28;20028;-67
2022/02/26 00:03:24;;;;;;;4.70;1.40;;;;;;;-144.43;100.00;64487.81;5015997;28;20034;-67
2022/02/26 00:05:49;;;;;;;4.97;1.70;;;;;;;-144.43;100.00;64487.81;5015827;28;20018;-67
2022/02/26 00:08:20;;;;;;;6.43;1.92;;;;;;;-144.43;100.00;64487.81;5015766;28;20029;-67
2022/02/26 00:10:51;;;;;;;5.07;1.52;;;;;;;-144.43;100.00;64487.81;5014115;28;20523;-68
2022/02/26 00:13:16;;;;;;;6.05;1.77;;;;;;;-144.43;100.00;64487.81;5014335;28;20034;-67
2022/02/26 00:15:45;;;;;;;3.92;1.52;;;;;;;-144.43;100.00;64487.81;5014381;28;20108;-67
2022/02/26 00:18:16;;;;;;;4.72;1.77;;;;;;;-144.43;100.00;64487.81;5015690;28;20030;-67
2022/02/26 00:20:41;;;;;;;5.35;2.05;;;;;;;-144.43;100.00;64487.81;5015595;28;20033;-67
2022/02/26 00:23:07;;;;;;;3.75;1.98;;;;;;;-144.43;100.00;64487.81;5015385;28;20389;-67
2022/02/26 00:25:38;;;;;;;3.35;1.70;;;;;;;-144.43;100.00;64487.81;5015528;28;20018;-67
2022/02/26 00:28:12;;;;;;;5.65;1.90;;;;;;;-144.43;100.00;64487.81;5015362;28;20033;-67
2022/02/26 00:30:43;;;;;;;5.45;1.45;;;;;;;-144.43;100.00;64487.81;5015495;28;20029;-67
2022/02/26 00:33:17;;;;;;;5.25;1.67;;;;;;;-144.43;100.00;64487.81;5015336;28;20034;-68
2022/02/26 00:35:58;;;;;;;4.55;1.60;;;;;;;-144.43;100.00;64487.81;5015319;28;20501;-67
2022/02/26 00:38:26;;;;;;;3.00;1.45;;;;;;;-144.43;100.00;64487.81;5015151;28;20057;-67
2022/02/26 00:40:56;;;;;;;3.47;1.58;;;;;;;-0.44;100.00;96000.75;5013982;28;20032;-68
2022/02/26 00:43:22;;;;;;;8.10;2.13;;;;;;;-0.46;100.00;96031.69;5015182;28;20112;-67
2022/02/26 00:45:48;;;;;;;3.25;1.70;;;;;;;-0.47;100.00;96038.78;5015074;28;20029;-68
2022/02/26 00:48:13;;;;;;;4.78;2.65;;;;;;;-0.47;100.00;96041.41;5015142;28;20029;-68
2022/02/26 00:50:48;;;;;;;4.85;2.53;;;;;;;-0.46;100.00;96055.38;5015341;28;20064;-67
2022/02/26 00:53:16;;;;;;;6.55;2.67;;;;;;;-0.50;100.00;96048.84;5014935;28;20029;-67
2022/02/26 00:55:41;;;;;;;5.22;2.50;;;;;;;-0.51;100.00;96055.91;5014917;28;20025;-67
2022/02/26 00:58:12;;;;;;;7.22;2.35;;;;;;;-0.53;100.00;96059.72;5014907;28;20028;-67
2022/02/26 01:00:43;;;;;;;4.88;2.45;;;;;;;-0.55;100.00;96062.50;5014786;28;20037;-67
2022/02/26 01:03:08;;;;;;;7.10;3.15;;;;;;;-0.54;100.00;96072.06;5013485;28;20026;-68
2022/02/26 01:05:36;;;;;;;5.80;3.03;;;;;;;-0.53;100.00;96067.63;5014655;28;20263;-68
2022/02/26 01:08:02;;;;;;;13.18;3.45;;;;;;;-0.55;100.00;96069.56;5015018;28;20025;-68
2022/02/26 01:10:27;;;;;;;11.02;4.22;;;;;;;-0.55;100.00;96073.03;5014673;28;20033;-67
2022/02/26 01:12:52;;;;;;;9.88;4.00;;;;;;;-0.55;100.00;96072.19;5014500;28;20113;-68
2022/02/26 01:15:18;;;;;;;8.32;4.35;;;;;;;-0.56;100.00;96070.56;5014704;28;20481;-68
2022/02/26 01:17:51;;;;;;;24.40;4.47;;;;;;;-0.59;100.00;96066.47;5014669;28;20037;-67
2022/02/26 01:20:17;;;;;;;25.38;4.00;;;;;;;-0.62;100.00;96074.72;5013337;28;20033;-68
2022/02/26 01:22:42;;;;;;;29.73;4.47;;;;;;;-0.65;100.00;96077.69;5013276;28;20502;-68
2022/02/26 01:25:13;;;;;;;7.13;3.83;;;;;;;-0.69;100.00;96079.81;5014342;28;20404;-68
2022/02/26 01:27:39;;;;;;;105.63;4.93;;;;;;;-0.71;100.00;96086.25;5014360;28;20029;-68
2022/02/26 01:30:18;;;;;;;22.30;3.63;;;;;;;-0.71;100.00;96089.72;5013056;28;20029;-68
2022/02/26 01:32:52;;;;;;;124.43;5.82;;;;;;;-0.75;100.00;96085.78;5014474;28;20120;-68
2022/02/26 01:35:23;;;;;;;79.50;5.38;;;;;;;-0.75;100.00;96088.41;5014082;28;20420;-67
2022/02/26 01:37:49;;;;;;;97.25;6.28;;;;;;;-0.74;100.00;96086.59;5014212;28;20033;-67
2022/02/26 01:40:17;;;;;;;26.50;3.88;;;;;;;-0.74;100.00;96097.94;5012893;28;20037;-67
2022/02/26 01:42:45;;;;;;;6.60;3.67;;;;;;;-0.76;100.00;96089.41;5012945;28;20026;-67
2022/02/26 01:45:13;;;;;;;69.68;5.15;;;;;;;-0.81;100.00;96083.81;5013000;28;20048;-68
2022/02/26 01:47:38;;;;;;;39.88;3.83;;;;;;;-0.81;100.00;96090.91;5045790;28;20026;-67
2022/02/26 01:50:09;;;;;;;55.05;3.53;;;;;;;-0.88;100.00;96091.56;5012709;28;20030;-68
2022/02/26 01:52:43;;;;;;;50.80;3.67;;;;;;;-0.95;100.00;96095.06;5012441;28;20064;-67
2022/02/26 01:55:09;;;;;;;19.27;2.70;;;;;;;-1.00;100.00;96090.28;5014027;28;20101;-68
2022/02/26 01:57:35;;;;;;;11.23;2.28;;;;;;;-1.03;100.00;96100.31;5013666;28;20117;-67
2022/02/26 02:00:01;;;;;;;13.80;2.45;;;;;;;-1.08;100.00;96092.97;5013847;28;20388;-67
2022/02/26 02:02:35;;;;;;;8.85;2.50;;;;;;;-1.14;100.00;96101.50;5013684;28;20025;-67
2022/02/26 02:05:02;;;;;;;20.73;2.67;;;;;;;-1.20;100.00;96100.34;5013599;28;20025;-67
2022/02/26 02:07:32;;;;;;;13.30;2.60;;;;;;;-1.25;100.00;96102.66;5013925;28;20037;-67
2022/02/26 02:09:58;;;;;;;13.30;2.45;;;;;;;-144.43;100.00;64487.81;5013434;28;20026;-67
2022/02/26 02:12:24;;;;;;;26.10;3.15;;;;;;;-144.43;100.00;64487.81;5013392;28;20071;-67
2022/02/26 02:14:50;;;;;;;6.93;2.38;;;;;;;-144.43;100.00;64487.81;5013080;28;20049;-67
2022/02/26 02:17:15;;;;;;;16.58;2.67;;;;;;;-144.43;100.00;64487.81;5012587;28;20366;-67
2022/02/26 02:19:43;;;;;;;15.73;2.42;;;;;;;-144.43;100.00;64487.81;5013685;28;20028;-67
2022/02/26 02:22:21;;;;;;;10.07;2.25;;;;;;;-144.43;100.00;64487.81;5045278;28;20037;-68
2022/02/26 02:24:47;;;;;;;3.35;2.33;;;;;;;-144.43;100.00;64487.81;5044320;28;20026;-67
2022/02/26 02:27:16;;;;;;;16.05;2.20;;;;;;;-144.43;100.00;64487.81;5012167;28;20392;-67
2022/02/26 02:29:41;;;;;;;9.30;2.00;;;;;;;-144.43;100.00;64487.81;5013310;28;20508;-67
2022/02/26 02:32:10;;;;;;;9.55;2.50;;;;;;;-144.43;100.00;64487.81;5011916;28;20037;-67
2022/02/26 02:34:40;;;;;;;6.75;2.00;;;;;;;-144.43;100.00;64487.81;5013064;28;20030;-68
2022/02/26 02:37:10;;;;;;;13.50;2.42;;;;;;;-144.43;100.00;64487.81;5044761;28;20108;-67
2022/02/26 02:39:35;;;;;;;56.72;3.47;;;;;;;-144.43;100.00;64487.81;5012930;28;20026;-67
2022/02/26 02:42:12;;;;;;;48.20;3.25;;;;;;;-144.43;100.00;64487.81;5011762;28;20033;-67
2022/02/26 02:44:40;;;;;;;19.23;2.40;;;;;;;-144.43;100.00;64487.81;5011813;28;20025;-67
2022/02/26 02:47:05;;;;;;;25.77;2.90;;;;;;;-144.43;100.00;64487.81;5013003;28;20083;-67
2022/02/26 02:49:31;;;;;;;11.63;2.40;;;;;;;-144.43;100.00;64487.81;5011697;28;20030;-67
2022/02/26 02:51:59;;;;;;;19.55;2.63;;;;;;;-144.43;100.00;64487.81;5012841;28;20045;-67
2022/02/26 02:54:25;;;;;;;5.18;2.28;;;;;;;-144.43;100.00;64487.81;5012792;28;20026;-67
2022/02/26 02:56:50;;;;;;;15.20;2.60;;;;;;;-144.43;100.00;64487.81;5012877;28;20026;-67
2022/02/26 02:59:18;;;;;;;15.07;2.42;;;;;;;-144.43;100.00;64487.81;5012815;28;20029;-67
2022/02/26 03:01:43;;;;;;;7.07;2.47;;;;;;;-144.43;100.00;64487.81;5012786;28;20022;-67
2022/02/26 03:04:11;;;;;;;12.95;2.55;;;;;;;-144.43;100.00;64487.81;5012688;28;20507;-67
2022/02/26 03:06:39;;;;;;;30.05;3.00;;;;;;;-144.43;100.00;64487.81;5012918;28;20116;-66
2022/02/26 03:09:10;;;;;;;15.85;2.80;;;;;;;-144.43;100.00;64487.81;5012758;28;20031;-67
2022/02/26 03:11:35;;;;;;;11.13;3.10;;;;;;;-144.43;100.00;64487.81;5011405;28;20397;-67
2022/02/26 03:14:00;;;;;;;46.53;3.33;;;;;;;-144.43;100.00;64487.81;5012601;28;20052;-67
2022/02/26 03:16:38;;;;;;;20.27;2.85;;;;;;;-144.43;100.00;64487.81;5011454;28;20533;-67
2022/02/26 03:19:09;;;;;;;12.70;3.13;;;;;;;-144.43;100.00;64487.81;5012600;28;20026;-67
2022/02/26 03:21:35;;;;;;;23.88;3.03;;;;;;;-144.43;100.00;64487.81;5012774;28;20065;-66
2022/02/26 03:24:03;;;;;;;37.55;3.63;;;;;;;-144.43;100.00;64487.81;5012447;28;20096;-67
2022/02/26 03:26:33;;;;;;;39.75;2.97;;;;;;;-144.43;100.00;64487.81;5044351;28;20477;-67
2022/02/26 03:29:07;;;;;;;66.22;4.05;;;;;;;-144.43;100.00;64487.81;5012439;28;20040;-67
2022/02/26 03:31:33;;;;;;;45.92;3.47;;;;;;;-144.43;100.00;64487.81;5012633;28;20022;-66
2022/02/26 03:33:58;;;;;;;18.75;3.28;;;;;;;-144.43;100.00;64487.81;5044071;28;20032;-67
2022/02/26 03:36:32;;;;;;;9.98;2.70;;;;;;;-144.43;100.00;64487.81;5046348;28;20033;-67
2022/02/26 03:39:18;;;;;;;20.27;3.10;;;;;;;-144.43;100.00;64487.81;5016065;28;20034;-67
2022/02/26 03:41:46;;;;;;;3.63;2.60;;;;;;;-144.43;100.00;64487.81;5015205;28;20117;-66
2022/02/26 03:44:15;;;;;;;5.10;3.15;;;;;;;-144.43;100.00;64487.81;5048134;28;20041;-66
2022/02/26 03:46:43;;;;;;;4.57;3.08;;;;;;;-144.43;100.00;64487.81;5016558;28;20064;-66
2022/02/26 03:49:11;;;;;;;3.47;2.40;;;;;;;-144.43;100.00;64487.81;5016213;28;20036;-66
2022/02/26 03:51:44;;;;;;;4.07;2.78;;;;;;;-144.43;100.00;64487.81;5016076;28;20034;-65
2022/02/26 03:54:09;;;;;;;4.07;2.58;;;;;;;-144.43;100.00;64487.81;5015942;28;20037;-65
2022/02/26 03:56:35;;;;;;;2.90;2.00;;;;;;;-144.43;100.00;64487.81;5016112;28;20037;-66
2022/02/26 03:59:00;;;;;;;2.60;2.03;;;;;;;-144.43;100.00;64487.81;5016007;28;20022;-66
2022/02/26 04:01:26;;;;;;;4.50;2.08;;;;;;;-144.43;100.00;64487.81;5016023;28;20030;-66
2022/02/26 04:03:51;;;;;;;2.70;1.98;;;;;;;-144.43;100.00;64487.81;5015923;28;20060;-66
2022/02/26 04:06:20;;;;;;;2.00;1.55;;;;;;;-144.43;100.00;64487.81;5016340;28;20478;-66
2022/02/26 04:08:52;;;;;;;2.35;1.73;;;;;;;-144.43;100.00;64487.81;5047425;28;20442;-65
2022/02/26 04:11:20;;;;;;;2.35;1.52;;;;;;;-144.43;100.00;64487.81;5015826;28;20029;-65
2022/02/26 04:13:46;;;;;;;2.45;1.90;;;;;;;-144.43;100.00;64487.81;5015431;28;20033;-66
2022/02/26 04:16:11;;;;;;;2.15;1.58;;;;;;;-144.43;100.00;64487.81;5047593;28;20523;-65
2022/02/26 04:18:40;;;;;;;2.13;1.70;;;;;;;-144.43;100.00;64487.81;5030776;28;20131;-65
2022/02/26 04:21:05;;;;;;;1.98;1.50;;;;;;;-144.43;100.00;64487.81;5015680;28;20030;-65
2022/02/26 04:23:31;;;;;;;2.40;1.50;;;;;;;-144.43;100.00;64487.81;5015376;28;20030;-65
2022/02/26 04:26:22;;;;;;;1.77;1.58;;;;;;;-144.43;100.00;64487.81;5015575;28;20026;-65
2022/02/26 04:28:57;;;;;;;2.95;2.00;;;;;;;-144.43;100.00;64487.81;5015190;28;20041;-65
2022/02/26 04:31:40;;;;;;;1.63;1.50;;;;;;;-144.43;100.00;64487.81;5015506;28;20041;-65
2022/02/26 04:34:06;;;;;;;2.47;1.77;;;;;;;-144.43;100.00;64487.81;5015287;28;20117;-65
2022/02/26 04:36:31;;;;;;;2.45;1.70;;;;;;;-144.43;100.00;64487.81;5015329;28;20104;-65
2022/02/26 04:39:06;;;;;;;2.58;1.90;;;;;;;-144.43;100.00;64487.81;5015360;28;20397;-65
2022/02/26 04:41:31;;;;;;;3.20;1.98;;;;;;;-144.43;100.00;64487.81;5015170;28;20033;-65
2022/02/26 04:43:57;;;;;;;3.38;2.10;;;;;;;-144.43;100.00;64487.81;5059281;23;20167;-62
2022/02/26 04:46:25;;;;;;;4.30;2.35;;;;;;;-144.43;100.00;64487.81;5014739;28;20030;-61
2022/02/26 04:48:57;;;;;;;5.32;3.22;;;;;;;-144.43;100.00;64487.81;5014109;28;20029;-60
2022/02/26 04:51:22;;;;;;;5.15;2.63;;;;;;;-144.43;100.00;64487.81;5015296;28;20427;-61
2022/02/26 04:53:48;;;;;;;6.15;2.97;;;;;;;-144.43;100.00;64487.81;5015303;28;20052;-60
2022/02/26 04:56:13;;;;;;;4.20;2.65;;;;;;;-144.43;100.00;64487.81;5013762;28;20028;-62
2022/02/26 04:58:39;;;;;;;6.20;2.60;;;;;;;-144.43;100.00;64487.81;5013853;28;20030;-62
2022/02/26 05:01:05;;;;;;;4.93;2.60;;;;;;;-144.43;100.00;64487.81;5015005;28;20025;-62
2022/02/26 05:03:30;;;;;;;4.90;2.78;;;;;;;-144.43;100.00;64487.81;5013681;28;20040;-59
2022/02/26 05:05:56;;;;;;;5.50;2.95;;;;;;;-144.43;100.00;64487.81;5014918;28;20431;-63
2022/02/26 05:08:21;;;;;;;7.25;2.80;;;;;;;-144.43;100.00;64487.81;5013727;28;20052;-62
2022/02/26 05:10:47;;;;;;;6.88;3.25;;;;;;;-144.43;100.00;64487.81;5014970;28;20021;-64
2022/02/26 05:13:15;;;;;;;7.72;3.20;;;;;;;-144.43;100.00;64487.81;5013586;28;20511;-59
2022/02/26 05:15:47;;;;;;;7.13;2.45;;;;;;;-144.43;100.00;64487.81;5014378;28;20752;-63
2022/02/26 05:18:12;;;;;;;6.25;3.20;;;;;;;-144.43;100.00;64487.81;5014755;28;20041;-63
2022/02/26 05:20:38;;;;;;;5.43;2.95;;;;;;;-144.43;100.00;64487.81;5013401;28;20030;-61
2022/02/26 05:23:03;;;;;;;6.25;2.67;;;;;;;-144.43;100.00;64487.81;5014636;28;20076;-63
2022/02/26 05:25:31;;;;;;;6.03;3.25;;;;;;;-144.43;100.00;64487.81;5013245;28;20384;-58
2022/02/26 05:27:57;;;;;;;5.88;2.90;;;;;;;-144.43;100.00;64487.81;5014356;28;20033;-63
2022/02/26 05:30:22;;;;;;;5.00;2.92;;;;;;;-144.43;100.00;64487.81;5014616;28;20473;-60
2022/02/26 05:32:47;;;;;;;7.53;2.90;;;;;;;-144.43;100.00;64487.81;5014708;28;20034;-61
2022/02/26 05:35:15;;;;;;;7.53;3.55;;;;;;;-144.43;100.00;64487.81;5014364;28;20018;-58
2022/02/26 05:38:05;;;;;;;5.40;2.53;;;;;;;-144.43;100.00;64487.81;5013399;28;20550;-61
2022/02/26 05:40:31;;;;;;;7.10;2.95;;;;;;;-144.43;100.00;64487.81;5014299;28;20026;-60
2022/02/26 05:42:56;;;;;;;4.65;2.53;;;;;;;-144.43;100.00;64487.81;5014715;28;20025;-59
2022/02/26 05:45:22;;;;;;;6.30;3.03;;;;;;;-144.43;100.00;64487.81;5014208;28;20100;-60
2022/02/26 05:47:47;;;;;;;5.35;2.97;;;;;;;-144.43;100.00;64487.81;5013060;28;20481;-58
2022/02/26 05:50:18;;;;;;;6.25;2.78;;;;;;;-144.43;100.00;64487.81;5012994;28;20029;-63
2022/02/26 05:52:44;;;;;;;6.88;2.75;;;;;;;-144.43;100.00;64487.81;5014150;28;20080;-61
2022/02/26 05:55:15;;;;;;;5.65;2.70;;;;;;;-144.43;100.00;64487.81;5012636;28;20034;-59
2022/02/26 05:57:40;;;;;;;5.13;2.80;;;;;;;-144.43;100.00;64487.81;5014074;28;20052;-61
2022/02/26 06:00:09;;;;;;;6.38;2.88;;;;;;;-144.43;100.00;64487.81;5012662;28;20025;-61
2022/02/26 06:02:35;;;;;;;5.75;3.15;;;;;;;-144.43;100.00;64487.81;5014043;28;20030;-59
2022/02/26 06:05:01;;;;;;;7.35;3.92;;;;;;;-144.43;100.00;64487.81;5013943;28;20073;-60
2022/02/26 06:07:26;;;;;;;6.93;3.83;;;;;;;-144.43;100.00;64487.81;5013936;28;20084;-59
2022/02/26 06:09:51;;;;;;;5.85;3.60;;;;;;;-144.43;100.00;64487.81;5013831;28;20033;-58
2022/02/26 06:12:17;;;;;;;7.43;4.68;;;;;;;-144.43;100.00;64487.81;5014150;28;20037;-60
2022/02/26 06:14:42;;;;;;;11.10;5.72;;;;;;;-144.43;100.00;64487.81;5012692;28;20509;-61
2022/02/26 06:17:11;;;;;;;9.10;5.60;;;;;;;-144.43;100.00;64487.81;5014059;28;20087;-58
2022/02/26 06:19:36;;;;;;;8.35;4.78;;;;;;;-144.43;100.00;64487.81;5013851;28;20024;-56
2022/02/26 06:22:04;;;;;;;9.27;4.82;;;;;;;-144.43;100.00;64487.81;5013994;28;20022;-57
2022/02/26 06:24:30;;;;;;;8.65;4.53;;;;;;;-144.43;100.00;64487.81;5013960;28;20096;-60
2022/02/26 06:26:58;;;;;;;8.63;4.82;;;;;;;-144.43;100.00;64487.81;5013649;28;20025;-63
2022/02/26 06:29:24;;;;;;;8.95;5.30;;;;;;;-144.43;100.00;64487.81;5013492;28;20120;-61
2022/02/26 06:31:49;;;;;;;11.05;5.30;;;;;;;-144.43;100.00;64487.81;5013515;28;20033;-63
2022/02/26 06:34:14;;;;;;;11.25;5.15;;;;;;;-144.43;100.00;64487.81;5012175;28;20473;-61
2022/02/26 06:36:40;;;;;;;6.63;4.68;;;;;;;-144.43;100.00;64487.81;5014241;28;20038;-59
2022/02/26 06:39:06;;;;;;;9.27;4.60;;;;;;;-144.43;100.00;64487.81;5016625;28;20061;-58
2022/02/26 06:41:32;;;;;;;8.85;4.60;;;;;;;-144.43;100.00;64487.81;5018974;28;20036;-57
2022/02/26 06:43:57;;;;;;;7.38;4.03;;;;;;;-144.43;100.00;64487.81;5017776;28;20050;-59
2022/02/26 06:46:26;;;;;;;7.03;4.05;;;;;;;-144.43;100.00;64487.81;5020850;28;20021;-58
2022/02/26 06:48:51;;;;;;;8.43;3.92;;;;;;;-144.43;100.00;64487.81;5019878;28;20125;-58
2022/02/26 06:51:17;;;;;;;7.75;4.57;;;;;;;-144.43;100.00;64487.81;5018328;28;20029;-58
2022/02/26 06:53:42;;;;;;;6.47;4.38;;;;;;;-144.43;100.00;64487.81;5011961;28;20021;-59
2022/02/26 06:56:07;;;;;;;8.27;4.57;;;;;;;-144.43;100.00;64487.81;5013137;28;20104;-60
2022/02/26 06:58:33;;;;;;;7.20;3.63;;;;;;;-144.43;100.00;64487.81;5012979;28;20099;-58
2022/02/26 07:01:01;;;;;;;7.75;4.43;;;;;;;-144.43;100.00;64487.81;5012517;28;20061;-59
2022/02/26 07:03:27;;;;;;;6.07;3.30;;;;;;;-144.43;100.00;64487.81;5011722;28;20400;-58
2022/02/26 07:05:52;;;;;;;5.18;3.72;;;;;;;-144.43;100.00;64487.81;5012735;28;20029;-62
2022/02/26 07:08:20;;;;;;;7.93;4.18;;;;;;;-144.43;100.00;64487.81;5011673;28;20473;-61
2022/02/26 07:10:45;;;;;;;6.53;3.92;;;;;;;-144.43;100.00;64487.81;5011885;28;20049;-58
2022/02/26 07:13:11;;;;;;;6.22;3.60;;;;;;;-144.43;100.00;64487.81;5012900;28;20022;-60
2022/02/26 07:15:37;;;;;;;6.10;3.03;;;;;;;-144.43;100.00;64487.81;5011416;28;20022;-60
2022/02/26 07:18:10;;;;;;;5.75;2.85;;;;;;;-144.43;100.00;64487.81;5011554;28;20034;-62
2022/02/26 07:20:37;;;;;;;5.40;2.85;;;;;;;-144.43;100.00;64487.81;5012759;28;20109;-60
2022/02/26 07:23:03;;;;;;;6.95;3.08;;;;;;;-144.43;100.00;64487.81;5007024;28;20038;-60
2022/02/26 07:25:28;;;;;;;7.82;2.85;;;;;;;-144.43;100.00;64487.81;5009768;28;20041;-60
2022/02/26 07:27:54;;;;;;;6.10;3.20;;;;;;;-144.43;100.00;64487.81;5012276;28;20025;-59
2022/02/26 07:30:23;;;;;;;7.13;3.47;;;;;;;-144.43;100.00;64487.81;5011825;28;20084;-63
2022/02/26 07:32:49;;;;;;;8.00;3.53;;;;;;;-144.43;100.00;64487.81;4978294;28;20022;-63
2022/02/26 07:35:14;;;;;;;9.30;4.03;;;;;;;-144.43;100.00;64487.81;5010125;28;20370;-62
2022/02/26 07:37:43;;;;;;;6.15;3.30;;;;;;;-144.43;100.00;64487.81;5012042;28;20018;-62
2022/02/26 07:40:13;;;;;;;7.22;3.40;;;;;;;-144.43;100.00;64487.81;5010972;28;20025;-59
2022/02/26 07:42:41;;;;;;;8.80;3.95;;;;;;;-144.43;100.00;64487.81;5012303;28;20022;-61
2022/02/26 07:45:09;;;;;;;7.28;3.42;;;;;;;-144.43;100.00;64487.81;5011335;28;20400;-57
2022/02/26 07:47:38;;;;;;;8.45;3.33;;;;;;;-144.43;100.00;64487.81;5010830;28;20124;-61
2022/02/26 07:50:04;;;;;;;7.15;3.47;;;;;;;-144.43;100.00;64487.81;5012499;28;20060;-62
2022/02/26 07:52:31;;;;;;;8.43;3.70;;;;;;;-144.43;100.00;64487.81;5009979;28;20025;-63
2022/02/26 07:54:57;;;;;;;9.40;3.85;;;;;;;-144.43;100.00;64487.81;5011713;28;20026;-63
2022/02/26 07:57:23;;;;;;;7.47;3.53;;;;;;;-144.43;100.00;64487.81;5010743;28;20030;-63
2022/02/26 07:59:54;;;;;;;6.65;3.40;;;;;;;-144.43;100.00;64487.81;5010921;28;20018;-64
2022/02/26 08:02:20;;;;;;;7.20;3.20;;;;;;;-144.43;100.00;64487.81;5010084;28;20022;-63
2022/02/26 08:04:46;;;;;;;9.00;3.58;;;;;;;-144.43;100.00;64487.81;5011522;28;20503;-64
2022/02/26 08:07:13;;;;;;;7.63;3.90;;;;;;;-144.43;100.00;64487.81;5010827;28;20017;-64
2022/02/26 08:09:43;;;;;;;7.88;3.92;;;;;;;-144.43;100.00;64487.81;5010784;28;20480;-64
2022/02/26 08:12:12;;;;;;;6.68;3.38;;;;;;;-144.43;100.00;64487.81;5010345;28;20026;-64
2022/02/26 08:14:41;;;;;;;7.85;3.88;;;;;;;-144.43;100.00;64487.81;5008382;28;20529;-65
2022/02/26 08:17:12;;;;;;;7.20;3.63;;;;;;;-144.43;100.00;64487.81;5007269;28;20026;-63
2022/02/26 08:19:41;;;;;;;8.15;3.95;;;;;;;-144.43;100.00;64487.81;5007666;28;20033;-64
2022/02/26 08:22:06;;;;;;;8.18;4.35;;;;;;;-144.43;100.00;64487.81;5024976;28;20034;-64
2022/02/26 08:24:32;;;;;;;7.20;3.88;;;;;;;-144.43;100.00;64487.81;5012815;28;20021;-65
2022/02/26 08:26:58;;;;;;;8.48;4.10;;;;;;;-144.43;100.00;64487.81;5015111;28;20033;-66
2022/02/26 08:29:23;;;;;;;9.73;3.95;;;;;;;-144.43;100.00;64487.81;5020413;28;20407;-62
2022/02/26 08:31:51;;;;;;;6.40;3.33;;;;;;;-144.43;100.00;64487.81;5035359;28;20553;-62
2022/02/26 08:34:17;;;;;;;5.68;3.63;;;;;;;-144.43;100.00;64487.81;5035072;28;20365;-63
2022/02/26 08:36:44;;;;;;;6.03;3.38;;;;;;;-144.43;100.00;64487.81;5034035;28;20037;-63
2022/02/26 08:39:09;;;;;;;6.25;2.88;;;;;;;-144.43;100.00;64487.81;5035123;28;20049;-63
2022/02/26 08:41:38;;;;;;;7.78;3.67;;;;;;;-144.43;100.00;64487.81;5035053;28;20598;-65
2022/02/26 08:44:06;;;;;;;8.73;3.67;;;;;;;-144.43;100.00;64487.81;5034428;28;20063;-64
2022/02/26 08:46:41;;;;;;;7.70;3.85;;;;;;;-144.43;100.00;64487.81;5035151;28;20029;-65
2022/02/26 08:49:06;;;;;;;5.97;3.85;;;;;;;-144.43;100.00;64487.81;5050440;28;20022;-65
2022/02/26 08:51:35;;;;;;;6.07;3.47;;;;;;;-144.43;100.00;64487.81;5034012;28;20391;-66
2022/02/26 08:54:00;;;;;;;9.48;4.30;;;;;;;-144.43;100.00;64487.81;5034571;28;20025;-66
2022/02/26 08:56:26;;;;;;;6.95;4.00;;;;;;;-144.43;100.00;64487.81;5049920;28;20035;-66
2022/02/26 08:58:54;;;;;;;7.38;3.97;;;;;;;-144.43;100.00;64487.81;5034721;28;20025;-66
2022/02/26 09:01:23;;;;;;;10.82;5.03;;;;;;;-144.43;100.00;64487.81;5034642;28;20041;-65
2022/02/26 09:03:52;;;;;;;6.32;4.03;;;;;;;-144.43;100.00;64487.81;5034640;28;20029;-64
2022/02/26 09:06:24;;;;;;;9.75;4.28;;;;;;;-144.43;100.00;64487.81;5033308;28;20495;-64
2022/02/26 09:08:49;;;;;;;6.55;4.43;;;;;;;-144.43;100.00;64487.81;5034444;28;20033;-64
2022/02/26 09:11:15;;;;;;;8.93;4.40;;;;;;;-144.43;100.00;64487.81;5034607;28;20128;-63
2022/02/26 09:13:45;;;;;;;8.20;3.60;;;;;;;-144.43;100.00;64487.81;5034862;28;20025;-64
2022/02/26 09:16:11;;;;;;;5.82;3.83;;;;;;;-144.43;100.00;64487.81;5033283;28;20025;-65
2022/02/26 09:18:37;;;;;;;8.57;4.45;;;;;;;-144.43;100.00;64487.81;5033521;28;20036;-66
2022/02/26 09:21:06;;;;;;;6.85;4.20;;;;;;;-144.43;100.00;64487.81;5034423;28;20026;-65
2022/02/26 09:23:35;;;;;;;8.32;4.25;;;;;;;-144.43;100.00;64487.81;5032909;28;20026;-66
2022/02/26 09:26:10;;;;;;;7.28;4.68;;;;;;;-144.43;100.00;64487.81;5033321;28;20410;-65
2022/02/26 09:28:39;;;;;;;6.75;3.90;;;;;;;-144.43;100.00;64487.81;5034213;28;20032;-66
2022/02/26 09:31:05;;;;;;;7.10;3.92;;;;;;;-144.43;100.00;64487.81;5034144;28;20029;-67
2022/02/26 09:33:31;;;;;;;9.20;4.30;;;;;;;-144.43;100.00;64487.81;5032616;28;20159;-66
2022/02/26 09:35:59;;;;;;;7.80;3.83;;;;;;;-144.43;100.00;64487.81;5033671;28;20527;-66
2022/02/26 09:38:24;;;;;;;7.40;3.42;;;;;;;-144.43;100.00;64487.81;5034033;28;20504;-67
2022/02/26 09:40:52;;;;;;;5.22;2.67;;;;;;;-144.43;100.00;64487.81;5034004;28;20025;-65
2022/02/26 09:43:17;;;;;;;6.05;3.15;;;;;;;-144.43;100.00;64487.81;5027698;28;20025;-67
2022/02/26 09:45:42;;;;;;;5.68;3.30;;;;;;;-144.43;100.00;64487.81;5013942;28;20048;-65
2022/02/26 09:48:08;;;;;;;5.45;2.88;;;;;;;-144.43;100.00;64487.81;5012754;28;20026;-65
2022/02/26 09:50:38;;;;;;;5.78;2.80;;;;;;;-144.43;100.00;64487.81;5012533;28;20112;-65
2022/02/26 09:53:12;;;;;;;6.95;2.75;;;;;;;-144.43;100.00;64487.81;5013999;28;20492;-65
2022/02/26 09:55:38;;;;;;;8.10;3.08;;;;;;;-144.43;100.00;64487.81;5012392;28;20124;-64
2022/02/26 09:58:06;;;;;;;9.18;2.83;;;;;;;-144.43;100.00;64487.81;5012638;28;20540;-64
2022/02/26 10:00:32;;;;;;;6.40;3.30;;;;;;;-144.43;100.00;64487.81;5013806;28;20054;-64
2022/02/26 10:03:00;;;;;;;6.22;2.90;;;;;;;-144.43;100.00;64487.81;5013595;28;20053;-65
2022/02/26 10:05:26;;;;;;;5.28;2.80;;;;;;;-144.43;100.00;64487.81;5013487;28;20148;-63
2022/02/26 10:07:51;;;;;;;4.70;2.47;;;;;;;-144.43;100.00;64487.81;5013711;28;20452;-64
2022/02/26 10:10:23;;;;;;;6.25;2.97;;;;;;;-144.43;100.00;64487.81;5013678;28;20032;-64
2022/02/26 10:13:13;;;;;;;9.02;2.63;;;;;;;-144.43;100.00;64487.81;5012428;28;20033;-64
2022/02/26 10:15:40;;;;;;;7.22;2.08;;;;;;;-144.43;100.00;64487.81;5012924;28;20033;-63
2022/02/26 10:18:13;;;;;;;3.45;1.55;;;;;;;-144.43;100.00;64487.81;5013671;28;20117;-64
2022/02/26 10:20:54;;;;;;;;;;;;;;;-144.43;100.00;64487.81;5012748;28;20033;-63
2022/02/26 10:23:21;;;;;;;4.85;1.88;;;;;;;-144.43;100.00;64487.81;5020011;28;19979;-64
2022/02/26 10:25:46;;;;;;;4.55;1.95;;;;;;;-144.43;100.00;64487.81;5013255;28;20029;-64
2022/02/26 10:28:20;;;;;;;6.47;2.17;;;;;;;-144.43;100.00;64487.81;5013352;28;20480;-65
2022/02/26 10:31:04;;;;;;;4.65;1.88;;;;;;;-144.43;100.00;64487.81;5013267;28;20026;-65
2022/02/26 10:33:29;;;;;;;7.95;2.15;;;;;;;-144.43;100.00;64487.81;5013329;28;20515;-64
2022/02/26 10:36:06;;;;;;;6.57;1.88;;;;;;;-144.43;100.00;64487.81;5011831;28;20061;-65
2022/02/26 10:38:34;;;;;;;2.95;1.60;;;;;;;-144.43;100.00;64487.81;5013016;28;20052;-64
2022/02/26 10:41:03;;;;;;;5.75;2.00;;;;;;;-144.43;100.00;64487.81;5011911;28;20072;-65
2022/02/26 10:43:50;;;;;;;4.60;2.00;;;;;;;-144.43;100.00;64487.81;5013232;28;20032;-64
2022/02/26 10:46:30;;;;;;;4.38;2.03;;;;;;;-144.43;100.00;64487.81;5013226;28;20045;-64
2022/02/26 10:49:01;;;;;;;5.25;2.50;;;;;;;-144.43;100.00;64487.81;5012953;28;20033;-65
2022/02/26 10:51:38;;;;;;;5.45;2.53;;;;;;;-144.43;100.00;64487.81;5011753;28;20028;-64
2022/02/26 10:54:12;;;;;;;6.35;2.60;;;;;;;-144.43;100.00;64487.81;5011605;28;20029;-65
2022/02/26 10:56:39;;;;;;;6.63;2.38;;;;;;;-144.43;100.00;64487.81;5012962;28;20048;-64
2022/02/26 10:59:07;;;;;;;7.00;2.67;;;;;;;-144.43;100.00;64487.81;5011498;28;20117;-64
2022/02/26 11:01:33;;;;;;;8.95;2.38;;;;;;;-144.43;100.00;64487.81;5012781;28;20040;-64
2022/02/26 11:04:01;;;;;;;5.45;2.30;;;;;;;-144.43;100.00;64487.81;5012759;28;20496;-65
2022/02/26 11:06:27;;;;;;;6.82;2.30;;;;;;;-144.43;100.00;64487.81;5012797;28;20092;-64
2022/02/26 11:08:54;;;;;;;5.38;2.63;;;;;;;-144.43;100.00;64487.81;5012785;28;20049;-65
2022/02/26 11:11:29;;;;;;;8.48;2.95;;;;;;;-144.43;100.00;64487.81;5012682;28;20030;-65
2022/02/26 11:13:59;;;;;;;8.20;2.13;;;;;;;-144.43;100.00;64487.81;5012170;28;20061;-65